Time;durP1;ratioP1;P1;durP2;ratioP2;P2;SDS_P1;SDS_P2;PMS_P1;PMS_P2;Temp;Humidity;BMP_temperature;BMP_pressure;BME280_temperature;BME280_humidity;BME280_pressure;Samples;Min_cycle;Max_cycle;Signal;HPM_P1;HPM_P2
2023/01/10 00:01:06;;;;;;;24.98;7.00;;;;;;;2.86;100.00;101071.31;5036750;28;20048;-72
2023/01/10 00:03:31;;;;;;;24.67;6.78;;;;;;;2.89;100.00;101081.88;5054478;28;20053;-72
2023/01/10 00:05:57;;;;;;;24.80;6.85;;;;;;;2.88;100.00;101082.69;5037003;28;20134;-73
2023/01/10 00:08:22;;;;;;;25.17;6.97;;;;;;;2.88;100.00;101094.00;5036611;28;20036;-72
2023/01/10 00:10:47;;;;;;;25.55;7.10;;;;;;;2.92;100.00;101097.66;5054353;28;20021;-71
2023/01/10 00:13:23;;;;;;;26.00;6.97;;;;;;;2.96;100.00;101107.38;5054595;28;20029;-72
2023/01/10 00:15:54;;;;;;;23.75;6.60;;;;;;;2.93;100.00;101109.88;5054471;28;20041;-71
2023/01/10 00:18:20;;;;;;;25.77;7.00;;;;;;;2.87;100.00;101104.41;5054308;28;20021;-71
2023/01/10 00:20:48;;;;;;;26.75;6.72;;;;;;;2.84;100.00;101112.09;5053931;28;20029;-72
2023/01/10 00:23:14;;;;;;;23.83;6.35;;;;;;;2.83;100.00;101123.41;5054356;28;20571;-72
2023/01/10 00:25:39;;;;;;;24.90;6.85;;;;;;;2.79;100.00;101123.25;5054156;28;20123;-72
2023/01/10 00:28:16;;;;;;;23.85;6.30;;;;;;;2.84;100.00;101135.59;5054322;28;20037;-72
2023/01/10 00:30:41;;;;;;;23.40;6.10;;;;;;;2.84;100.00;101138.22;5054334;28;20029;-73
2023/01/10 00:33:09;;;;;;;26.02;6.57;;;;;;;2.88;100.00;101148.84;5054223;28;20372;-71
2023/01/10 00:35:34;;;;;;;23.55;6.35;;;;;;;2.84;100.00;101146.06;5053839;28;20112;-73
2023/01/10 00:38:06;;;;;;;22.90;6.30;;;;;;;2.74;100.00;101157.88;5054140;28;20454;-73
2023/01/10 00:40:32;;;;;;;25.07;5.97;;;;;;;2.70;100.00;101149.00;5050622;28;20036;-72
2023/01/10 00:45:46;;;;;;;25.48;6.53;;;;;;;2.65;100.00;101168.81;5052433;28;20044;-75
2023/01/10 00:48:15;;;;;;;24.58;6.40;;;;;;;2.62;100.00;101166.06;5053904;28;20025;-72
2023/01/10 00:50:41;;;;;;;26.48;6.72;;;;;;;2.54;100.00;101160.53;5053797;28;20037;-72
2023/01/10 00:53:06;;;;;;;26.85;7.03;;;;;;;2.51;100.00;101156.91;5053582;28;20032;-74
2023/01/10 00:55:34;;;;;;;23.73;6.55;;;;;;;2.59;100.00;101164.22;5053653;28;20053;-77
2023/01/10 00:58:00;;;;;;;26.20;6.57;;;;;;;2.70;100.00;101159.44;5053591;28;20384;-72
2023/01/10 01:00:25;;;;;;;25.27;7.00;;;;;;;2.75;100.00;101165.75;5028112;28;20049;-72
2023/01/10 01:02:50;;;;;;;23.70;6.80;;;;;;;2.83;100.00;101165.19;5033629;28;20084;-72
2023/01/10 01:05:17;;;;;;;25.55;6.65;;;;;;;2.90;100.00;101165.50;5033474;28;20033;-73
2023/01/10 01:07:42;;;;;;;24.55;6.80;;;;;;;2.94;100.00;101169.09;5033441;28;20104;-78
2023/01/10 01:10:27;;;;;;;24.65;6.43;;;;;;;3.00;100.00;101172.00;5033592;28;20117;-72
2023/01/10 01:12:58;;;;;;;26.85;6.60;;;;;;;2.99;100.00;101185.88;5033604;28;20480;-73
2023/01/10 01:15:25;;;;;;;25.83;6.22;;;;;;;2.93;100.00;101191.72;5033400;28;20033;-72
2023/01/10 01:17:50;;;;;;;27.08;6.90;;;;;;;2.94;100.00;101195.22;5033264;28;20088;-73
2023/01/10 01:20:15;;;;;;;25.27;6.60;;;;;;;2.91;100.00;101210.78;5033340;28;20022;-72
2023/01/10 01:22:41;;;;;;;25.02;6.82;;;;;;;2.94;100.00;101205.66;5033139;28;20384;-72
2023/01/10 01:25:07;;;;;;;24.83;6.70;;;;;;;2.98;100.00;101204.97;5033151;28;20428;-76
2023/01/10 01:27:33;;;;;;;25.08;6.97;;;;;;;2.94;100.00;101209.19;5033294;28;20036;-72
2023/01/10 01:29:59;;;;;;;27.30;8.52;;;;;;;3.04;100.00;101213.06;5033036;28;20025;-72
2023/01/10 01:32:25;;;;;;;27.17;10.05;;;;;;;3.02;100.00;101208.63;5032371;28;20044;-73
2023/01/10 01:34:50;;;;;;;30.25;12.88;;;;;;;2.98;100.00;101212.81;5033046;28;20094;-72
2023/01/10 01:37:18;;;;;;;30.52;13.07;;;;;;;2.97;100.00;101221.47;5033011;28;20117;-72
2023/01/10 01:39:45;;;;;;;33.28;15.10;;;;;;;3.03;100.00;101220.81;5032906;28;20030;-76
2023/01/10 01:42:27;;;;;;;30.00;13.93;;;;;;;3.10;100.00;101244.69;5033026;28;20026;-72
2023/01/10 01:45:08;;;;;;;33.90;15.27;;;;;;;3.17;100.00;101235.34;5033064;28;20029;-72
2023/01/10 01:47:45;;;;;;;32.83;15.35;;;;;;;3.26;100.00;101240.97;5028617;28;20117;-72
2023/01/10 01:50:16;;;;;;;36.63;16.23;;;;;;;3.29;100.00;101248.00;5032833;28;20025;-72
2023/01/10 01:52:41;;;;;;;34.03;16.00;;;;;;;3.24;100.00;101249.56;5032786;28;20025;-78
2023/01/10 01:55:07;;;;;;;34.45;15.65;;;;;;;3.23;100.00;101253.00;5032753;28;20203;-72
2023/01/10 01:57:33;;;;;;;34.78;15.38;;;;;;;3.21;100.00;101252.06;5032680;28;20499;-72
2023/01/10 02:00:01;;;;;;;32.60;14.45;;;;;;;3.22;100.00;101245.97;5047301;28;20057;-76
2023/01/10 02:02:37;;;;;;;31.73;13.60;;;;;;;3.21;100.00;101252.94;5048782;28;20033;-72
2023/01/10 02:05:07;;;;;;;30.15;11.65;;;;;;;3.27;100.00;101255.78;5049488;28;20036;-71
2023/01/10 02:07:36;;;;;;;30.48;11.88;;;;;;;3.28;100.00;101261.94;5052203;28;20021;-76
2023/01/10 02:10:07;;;;;;;30.98;11.60;;;;;;;3.26;100.00;101247.88;5052351;28;20468;-73
2023/01/10 02:12:33;;;;;;;30.50;11.43;;;;;;;3.21;100.00;101250.31;5052568;28;20475;-72
2023/01/10 02:14:59;;;;;;;28.67;10.70;;;;;;;3.17;100.00;101265.81;5052462;28;20068;-75
2023/01/10 02:17:24;;;;;;;30.45;10.80;;;;;;;3.20;100.00;101255.50;5052278;28;20063;-71
2023/01/10 02:20:00;;;;;;;31.40;10.82;;;;;;;3.22;100.00;101267.78;5034485;28;20065;-71
2023/01/10 02:23:03;;;;;;;29.92;10.43;;;;;;;3.24;100.00;101263.50;5052416;28;20029;-72
2023/01/10 02:25:51;;;;;;;28.77;10.23;;;;;;;3.25;100.00;101264.44;5048465;28;20068;-72
2023/01/10 02:28:54;;;;;;;27.73;10.05;;;;;;;3.21;100.00;101270.34;5050867;28;20543;-72
2023/01/10 02:31:47;;;;;;;28.77;9.07;;;;;;;3.14;100.00;101262.22;5051155;28;20029;-74
2023/01/10 02:34:24;;;;;;;29.17;8.68;;;;;;;3.09;100.00;101262.91;5050206;28;20135;-72
2023/01/10 02:37:11;;;;;;;29.83;8.93;;;;;;;3.06;100.00;101254.91;5052198;28;20068;-71
2023/01/10 02:39:55;;;;;;;28.63;8.65;;;;;;;3.08;100.00;101261.09;5049486;28;20464;-73
2023/01/10 02:42:42;;;;;;;26.80;8.30;;;;;;;3.06;100.00;101258.44;5051971;28;20103;-72
2023/01/10 02:45:24;;;;;;;28.45;7.70;;;;;;;3.05;100.00;101256.63;5035423;28;20111;-72
2023/01/10 02:47:49;;;;;;;28.83;7.93;;;;;;;2.97;100.00;101261.56;5056034;28;20028;-71
2023/01/10 02:50:43;;;;;;;28.98;7.57;;;;;;;2.97;100.00;101263.25;5055951;28;20029;-71
2023/01/10 02:53:17;;;;;;;;;;;;;;;2.84;100.00;101268.78;5053793;28;20495;-71
2023/01/10 02:56:02;;;;;;;30.10;8.10;;;;;;;2.87;100.00;101274.13;5055710;28;19999;-72
2023/01/10 02:58:48;;;;;;;26.15;7.10;;;;;;;2.77;100.00;101276.38;5051892;28;20025;-71
2023/01/10 03:01:36;;;;;;;27.55;7.78;;;;;;;2.76;100.00;101273.69;5054058;28;20025;-73
2023/01/10 03:04:19;;;;;;;27.17;7.63;;;;;;;2.70;100.00;101276.94;5052333;28;20099;-72
2023/01/10 03:06:58;;;;;;;31.15;7.63;;;;;;;2.61;100.00;101289.59;5054091;28;20059;-76
2023/01/10 03:09:32;;;;;;;27.80;8.05;;;;;;;2.63;100.00;101287.94;5037821;28;20071;-79
2023/01/10 03:12:08;;;;;;;26.65;7.40;;;;;;;2.64;100.00;101294.94;5051878;28;20056;-73
2023/01/10 03:14:37;;;;;;;29.08;7.47;;;;;;;2.61;100.00;101295.69;5052462;28;20037;-72
2023/01/10 03:17:07;;;;;;;26.75;7.25;;;;;;;2.66;100.00;101301.13;5055452;28;20149;-72
2023/01/10 03:19:53;;;;;;;28.60;7.65;;;;;;;2.67;100.00;101307.25;5055617;28;20035;-72
2023/01/10 03:22:19;;;;;;;29.15;7.68;;;;;;;2.74;100.00;101318.03;5055400;28;20469;-73
2023/01/10 03:24:48;;;;;;;29.90;7.53;;;;;;;2.80;100.00;101327.84;5055509;28;20036;-74
2023/01/10 03:27:28;;;;;;;30.20;7.72;;;;;;;2.84;100.00;101323.63;5055190;28;20029;-75
2023/01/10 03:29:57;;;;;;;28.23;6.93;;;;;;;2.88;100.00;101317.72;5055209;28;20411;-72
2023/01/10 03:32:26;;;;;;;26.40;6.95;;;;;;;2.88;100.00;101325.56;5055144;28;20079;-72
2023/01/10 03:34:52;;;;;;;27.88;6.95;;;;;;;2.93;100.00;101326.66;5055231;28;20479;-73
2023/01/10 03:37:20;;;;;;;26.42;7.10;;;;;;;2.98;100.00;101332.97;5055112;28;20058;-72
2023/01/10 03:39:52;;;;;;;25.30;6.30;;;;;;;3.01;100.00;101324.38;5055041;28;20025;-72
2023/01/10 03:45:50;;;;;;;;;;;;;;;2.96;100.00;101330.28;5053536;28;20537;-75
2023/01/10 03:48:17;;;;;;;27.63;6.53;;;;;;;3.06;100.00;101339.41;5054866;28;20332;-72
2023/01/10 03:50:44;;;;;;;25.65;6.13;;;;;;;3.10;100.00;101348.25;5054805;28;20037;-72
2023/01/10 03:53:11;;;;;;;27.55;6.60;;;;;;;3.09;100.00;101351.72;5055050;28;20056;-71
2023/01/10 03:55:39;;;;;;;27.88;6.43;;;;;;;3.10;100.00;101354.41;5053955;28;20036;-72
2023/01/10 03:58:06;;;;;;;26.77;6.35;;;;;;;3.11;100.00;101360.50;5054654;28;20021;-71
2023/01/10 04:00:32;;;;;;;29.38;6.70;;;;;;;3.14;100.00;101361.50;5054667;28;20131;-71
2023/01/10 04:02:58;;;;;;;27.33;6.68;;;;;;;3.12;100.00;101355.34;5050512;28;20029;-71
2023/01/10 04:05:23;;;;;;;26.73;6.85;;;;;;;3.16;100.00;101364.22;5054825;28;20361;-71
2023/01/10 04:07:49;;;;;;;28.40;6.22;;;;;;;3.12;100.00;101375.38;5054618;28;20035;-72
2023/01/10 04:10:14;;;;;;;27.27;6.57;;;;;;;3.06;100.00;101381.22;5054495;28;20057;-71
2023/01/10 04:12:40;;;;;;;24.77;6.40;;;;;;;3.03;100.00;101383.69;5054408;28;20033;-72
2023/01/10 04:15:06;;;;;;;29.83;6.38;;;;;;;3.01;100.00;101379.22;5054733;28;20040;-71
2023/01/10 04:17:31;;;;;;;27.58;6.68;;;;;;;3.01;100.00;101380.09;5054332;28;20025;-71
2023/01/10 04:19:56;;;;;;;27.60;6.60;;;;;;;2.96;100.00;101387.75;5054402;28;20021;-73
2023/01/10 04:22:22;;;;;;;29.90;6.07;;;;;;;2.91;100.00;101394.50;5054201;28;20498;-71
2023/01/10 04:24:50;;;;;;;25.98;6.20;;;;;;;2.92;100.00;101392.78;5054120;28;20056;-71
2023/01/10 04:27:15;;;;;;;26.63;5.80;;;;;;;2.93;100.00;101399.78;5054269;28;20120;-72
2023/01/10 04:29:41;;;;;;;27.75;6.00;;;;;;;2.88;100.00;101398.69;5054112;28;20466;-71
2023/01/10 04:32:06;;;;;;;29.13;6.07;;;;;;;2.88;100.00;101409.13;5054160;28;20395;-75
2023/01/10 04:34:31;;;;;;;28.67;6.25;;;;;;;2.90;100.00;101402.28;5054232;28;20124;-72
2023/01/10 04:36:57;;;;;;;31.02;6.05;;;;;;;2.93;100.00;101395.44;5053899;28;20056;-75
2023/01/10 04:39:22;;;;;;;28.92;6.03;;;;;;;2.98;100.00;101390.44;5053857;28;20029;-72
2023/01/10 04:41:48;;;;;;;28.75;6.30;;;;;;;2.99;100.00;101386.13;5053927;28;20438;-73
2023/01/10 04:44:13;;;;;;;27.70;5.75;;;;;;;3.02;100.00;101381.91;5053786;28;20028;-72
2023/01/10 04:46:39;;;;;;;28.50;5.78;;;;;;;2.99;100.00;101387.00;5035923;28;20025;-72
2023/01/10 04:49:04;;;;;;;28.95;6.13;;;;;;;2.96;100.00;101385.13;5053918;28;20103;-73
2023/01/10 04:51:30;;;;;;;27.45;6.18;;;;;;;2.97;100.00;101410.44;5053682;28;20029;-72
2023/01/10 04:53:55;;;;;;;26.77;5.97;;;;;;;3.06;100.00;101409.03;5053500;28;20388;-73
2023/01/10 04:56:21;;;;;;;26.75;5.88;;;;;;;3.10;100.00;101411.88;5053779;28;20122;-75
2023/01/10 04:58:48;;;;;;;29.05;5.80;;;;;;;3.19;100.00;101410.47;5053392;28;20056;-72
2023/01/10 05:01:16;;;;;;;31.38;6.15;;;;;;;3.21;100.00;101403.63;5053709;28;20031;-72
2023/01/10 05:03:42;;;;;;;29.65;5.97;;;;;;;3.22;100.00;101393.22;5053607;28;20024;-72
2023/01/10 05:06:07;;;;;;;28.75;6.03;;;;;;;3.14;100.00;101387.66;5053156;28;20410;-72
2023/01/10 05:08:33;;;;;;;29.02;6.03;;;;;;;3.07;100.00;101401.31;5052771;28;20499;-74
2023/01/10 05:10:59;;;;;;;27.50;6.15;;;;;;;3.13;100.00;101406.78;5049731;28;20029;-72
2023/01/10 05:13:25;;;;;;;29.90;5.80;;;;;;;3.14;100.00;101424.22;5053244;28;20056;-72
2023/01/10 05:15:55;;;;;;;31.02;6.32;;;;;;;3.25;100.00;101431.66;5053317;28;20025;-71
2023/01/10 05:18:21;;;;;;;29.15;5.60;;;;;;;3.30;100.00;101440.59;5053431;28;20029;-72
2023/01/10 05:20:46;;;;;;;26.55;6.07;;;;;;;3.30;100.00;101441.47;5053087;28;20036;-72
2023/01/10 05:23:12;;;;;;;31.80;6.25;;;;;;;3.35;100.00;101461.69;5053292;28;20071;-71
2023/01/10 05:25:37;;;;;;;28.08;5.60;;;;;;;3.38;100.00;101456.59;5053076;28;20029;-72
2023/01/10 05:28:02;;;;;;;31.38;6.28;;;;;;;3.40;100.00;101454.94;5053319;28;20037;-72
2023/01/10 05:30:28;;;;;;;27.05;5.43;;;;;;;3.52;100.00;101454.59;5053127;28;20109;-72
2023/01/10 05:32:53;;;;;;;27.52;5.90;;;;;;;3.59;100.00;101469.72;5052933;28;20037;-72
2023/01/10 05:35:18;;;;;;;27.70;5.53;;;;;;;3.63;100.00;101463.78;5052795;28;20044;-72
2023/01/10 05:37:44;;;;;;;29.83;5.75;;;;;;;3.60;100.00;101461.94;5035123;28;20029;-71
2023/01/10 05:40:10;;;;;;;29.25;5.78;;;;;;;3.61;100.00;101465.44;5052968;28;20041;-72
2023/01/10 05:42:35;;;;;;;27.02;6.07;;;;;;;3.56;100.00;101456.50;5034889;28;20032;-72
2023/01/10 05:45:01;;;;;;;27.90;5.80;;;;;;;3.59;100.00;101464.47;5052959;28;20033;-71
2023/01/10 05:47:26;;;;;;;26.02;5.50;;;;;;;3.60;100.00;101471.50;5052699;28;20033;-73
2023/01/10 05:49:51;;;;;;;27.08;5.60;;;;;;;3.67;100.00;101463.97;5052643;28;20116;-71
2023/01/10 05:52:17;;;;;;;26.40;5.30;;;;;;;3.70;100.00;101489.38;5052832;28;20033;-71
2023/01/10 05:54:43;;;;;;;26.65;5.78;;;;;;;3.69;100.00;101479.72;5052510;28;20148;-71
2023/01/10 05:57:09;;;;;;;28.17;5.70;;;;;;;3.69;100.00;101492.81;5052535;28;20087;-72
2023/01/10 05:59:34;;;;;;;28.70;6.00;;;;;;;3.67;100.00;101491.84;5052507;28;20480;-72
2023/01/10 06:02:00;;;;;;;27.13;5.57;;;;;;;3.67;100.00;101494.47;5052542;28;20032;-72
2023/01/10 06:04:25;;;;;;;30.13;5.68;;;;;;;3.67;100.00;101499.69;5052647;28;20511;-74
2023/01/10 06:06:50;;;;;;;27.77;5.78;;;;;;;3.64;100.00;101505.69;5052419;28;20534;-74
2023/01/10 06:09:16;;;;;;;31.27;6.45;;;;;;;3.65;100.00;101501.34;5052436;28;20477;-72
2023/01/10 06:11:41;;;;;;;30.27;5.97;;;;;;;3.66;100.00;101488.31;5052831;28;20072;-72
2023/01/10 06:14:06;;;;;;;28.90;5.60;;;;;;;3.70;100.00;101488.47;5034505;28;20040;-72
2023/01/10 06:16:32;;;;;;;32.30;6.85;;;;;;;3.66;100.00;101492.69;5034673;28;20057;-73
2023/01/10 06:18:57;;;;;;;30.05;5.85;;;;;;;3.69;100.00;101489.31;5056142;28;20021;-73
2023/01/10 06:21:23;;;;;;;30.13;5.68;;;;;;;3.64;100.00;101490.00;5058983;28;20029;-73
2023/01/10 06:23:48;;;;;;;28.38;5.60;;;;;;;3.57;100.00;101502.72;5058880;28;20052;-73
2023/01/10 06:26:13;;;;;;;28.83;5.93;;;;;;;3.59;100.00;101495.84;5059408;28;20044;-72
2023/01/10 06:28:40;;;;;;;28.52;5.85;;;;;;;3.58;100.00;101494.97;5058877;28;20480;-72
2023/01/10 06:31:06;;;;;;;28.67;6.07;;;;;;;3.59;100.00;101506.31;5058875;28;20033;-72
2023/01/10 06:33:31;;;;;;;27.38;6.10;;;;;;;3.66;100.00;101510.97;5059292;28;20036;-72
2023/01/10 06:35:57;;;;;;;30.13;5.80;;;;;;;3.62;100.00;101514.28;5058739;28;20033;-73
2023/01/10 06:38:22;;;;;;;26.88;5.40;;;;;;;3.56;100.00;101507.06;5058937;28;20078;-72
2023/01/10 06:40:47;;;;;;;30.35;6.57;;;;;;;3.47;100.00;101515.41;5059204;28;20037;-75
2023/01/10 06:43:13;;;;;;;30.08;5.90;;;;;;;3.47;100.00;101514.53;5058753;28;20183;-72
2023/01/10 06:45:38;;;;;;;29.55;5.22;;;;;;;3.40;100.00;101520.31;5058894;28;20033;-75
2023/01/10 06:48:04;;;;;;;29.40;6.05;;;;;;;3.37;100.00;101525.41;5055506;28;20025;-83
2023/01/10 06:50:30;;;;;;;27.15;5.57;;;;;;;3.36;100.00;101529.72;5058684;28;20041;-82
2023/01/10 06:53:01;;;;;;;28.27;5.28;;;;;;;3.28;100.00;101520.66;5058848;28;20029;-84
2023/01/10 06:55:27;;;;;;;28.42;5.85;;;;;;;3.22;100.00;101530.81;5058537;28;20506;-84
2023/01/10 06:58:01;;;;;;;28.48;5.65;;;;;;;3.21;100.00;101549.94;5058680;28;20545;-81
2023/01/10 07:00:28;;;;;;;29.17;6.38;;;;;;;3.11;100.00;101554.72;5060526;28;20111;-83
2023/01/10 07:02:56;;;;;;;29.85;6.15;;;;;;;3.03;100.00;101542.13;5039818;28;20037;-87
2023/01/10 07:05:21;;;;;;;28.90;6.32;;;;;;;2.99;100.00;101542.84;5061438;28;20032;-86
2023/01/10 07:07:47;;;;;;;31.73;5.90;;;;;;;3.01;100.00;101557.75;5057869;28;20025;-82
2023/01/10 07:10:12;;;;;;;26.88;5.43;;;;;;;3.06;100.00;101561.47;5058381;28;20128;-83
2023/01/10 07:12:38;;;;;;;31.23;6.38;;;;;;;2.96;100.00;101578.44;5059946;28;20037;-81
2023/01/10 07:15:04;;;;;;;28.42;6.20;;;;;;;3.00;100.00;101571.66;5058344;28;20473;-80
2023/01/10 07:17:29;;;;;;;27.70;5.53;;;;;;;3.02;100.00;101570.00;5058896;28;20029;-79
2023/01/10 07:19:54;;;;;;;29.08;5.97;;;;;;;3.01;100.00;101585.59;5057838;28;20379;-81
2023/01/10 07:22:20;;;;;;;30.52;5.97;;;;;;;3.09;100.00;101576.41;5057888;28;20056;-86
2023/01/10 07:24:45;;;;;;;29.63;6.00;;;;;;;3.07;100.00;101578.03;5061117;28;20524;-82
2023/01/10 07:27:11;;;;;;;29.80;5.57;;;;;;;3.14;100.00;101590.56;5063070;28;20116;-86
2023/01/10 07:29:36;;;;;;;27.83;5.95;;;;;;;3.13;100.00;101597.53;5056353;28;20384;-82
2023/01/10 07:32:01;;;;;;;27.38;5.63;;;;;;;3.13;100.00;101596.59;5057838;28;20029;-74
2023/01/10 07:34:27;;;;;;;31.20;5.90;;;;;;;3.21;100.00;101607.44;5058109;28;20064;-80
2023/01/10 07:36:52;;;;;;;29.63;6.07;;;;;;;3.23;100.00;101605.78;5054140;28;20035;-82
2023/01/10 07:39:17;;;;;;;26.85;5.75;;;;;;;3.22;100.00;101609.19;5038827;28;20033;-81
2023/01/10 07:41:43;;;;;;;29.15;6.07;;;;;;;3.16;100.00;101619.38;5055114;28;20025;-79
2023/01/10 07:44:08;;;;;;;29.35;6.07;;;;;;;3.14;100.00;101622.81;5054245;28;20052;-77
2023/01/10 07:46:33;;;;;;;28.02;5.72;;;;;;;3.10;100.00;101617.38;5039224;28;20037;-76
2023/01/10 07:48:59;;;;;;;27.92;5.70;;;;;;;3.08;100.00;101625.13;5057754;28;20108;-76
2023/01/10 07:51:24;;;;;;;25.58;5.90;;;;;;;3.11;100.00;101630.50;5056492;28;20115;-78
2023/01/10 07:53:49;;;;;;;30.40;6.53;;;;;;;3.07;100.00;101630.28;5054695;28;20068;-83
2023/01/10 07:56:15;;;;;;;30.95;6.20;;;;;;;3.09;100.00;101634.78;5056402;28;20094;-76
2023/01/10 07:58:40;;;;;;;27.88;5.85;;;;;;;3.15;100.00;101634.16;5058164;28;20455;-82
2023/01/10 08:01:06;;;;;;;28.77;6.15;;;;;;;3.13;100.00;101630.56;5054198;28;20029;-81
2023/01/10 08:03:32;;;;;;;27.48;6.50;;;;;;;3.11;100.00;101629.63;5053473;28;20028;-78
2023/01/10 08:06:05;;;;;;;28.80;5.72;;;;;;;3.11;100.00;101634.84;5058758;28;20034;-77
2023/01/10 08:08:32;;;;;;;27.58;5.65;;;;;;;3.02;100.00;101634.41;5052095;28;20025;-85
2023/01/10 08:10:58;;;;;;;27.73;5.38;;;;;;;2.95;100.00;101633.22;5050893;28;20472;-78
2023/01/10 08:13:24;;;;;;;27.95;5.90;;;;;;;2.91;100.00;101634.81;5054955;28;20036;-80
2023/01/10 08:15:51;;;;;;;29.27;5.82;;;;;;;2.90;100.00;101619.94;5052726;28;20043;-86
2023/01/10 08:18:17;;;;;;;26.80;6.05;;;;;;;2.90;100.00;101629.50;5058841;28;20048;-84
2023/01/10 08:20:42;;;;;;;28.63;6.15;;;;;;;2.90;100.00;101627.78;5053537;28;20024;-81
2023/01/10 08:23:07;;;;;;;26.60;5.45;;;;;;;2.93;100.00;101624.41;5059151;28;20029;-82
2023/01/10 08:25:33;;;;;;;28.05;6.03;;;;;;;2.94;100.00;101631.41;5062351;28;20029;-84
2023/01/10 08:27:58;;;;;;;27.27;5.88;;;;;;;2.97;100.00;101623.72;5059045;28;20056;-77
2023/01/10 08:30:23;;;;;;;27.30;5.80;;;;;;;3.04;100.00;101628.41;5058668;28;20492;-79
2023/01/10 08:32:51;;;;;;;29.23;6.00;;;;;;;3.10;100.00;101639.19;5059949;28;20379;-79
2023/01/10 08:35:17;;;;;;;25.38;5.47;;;;;;;3.16;100.00;101653.34;5058021;28;20499;-81
2023/01/10 08:37:42;;;;;;;27.30;5.60;;;;;;;3.22;100.00;101637.94;5057801;28;20384;-80
2023/01/10 08:40:08;;;;;;;28.90;5.93;;;;;;;3.30;100.00;101642.72;5052470;28;20075;-74
2023/01/10 08:42:34;;;;;;;28.60;5.50;;;;;;;3.41;100.00;101645.84;5053430;28;20039;-75
2023/01/10 08:44:59;;;;;;;26.13;5.70;;;;;;;3.44;100.00;101632.91;5035243;28;20079;-78
2023/01/10 08:47:25;;;;;;;26.10;5.68;;;;;;;3.44;100.00;101632.03;5053341;28;20033;-74
2023/01/10 08:49:50;;;;;;;30.45;6.05;;;;;;;3.43;100.00;101638.94;5052921;28;20111;-77
2023/01/10 08:52:16;;;;;;;28.48;5.65;;;;;;;3.42;100.00;101628.44;5053578;28;20033;-75
2023/01/10 08:54:42;;;;;;;26.83;5.50;;;;;;;3.46;100.00;101633.84;5053186;28;20037;-74
2023/01/10 08:57:07;;;;;;;24.92;5.10;;;;;;;3.47;100.00;101637.38;5054187;28;20120;-73
2023/01/10 08:59:32;;;;;;;27.42;5.57;;;;;;;3.54;100.00;101628.09;5054673;28;20056;-74
2023/01/10 09:01:58;;;;;;;28.08;5.60;;;;;;;3.53;100.00;101626.31;5052974;28;20104;-78
2023/01/10 09:04:27;;;;;;;27.48;5.40;;;;;;;3.55;100.00;101630.78;5054907;28;20459;-75
2023/01/10 09:06:53;;;;;;;25.98;5.55;;;;;;;3.58;100.00;101614.34;5053263;28;20065;-74
2023/01/10 09:09:19;;;;;;;25.48;5.45;;;;;;;3.60;100.00;101629.28;5053568;28;20028;-77
2023/01/10 09:11:45;;;;;;;26.60;5.18;;;;;;;3.61;100.00;101620.63;5053267;28;20033;-75
2023/01/10 09:14:10;;;;;;;26.85;5.57;;;;;;;3.64;100.00;101617.22;5053395;28;20027;-74
2023/01/10 09:16:35;;;;;;;28.98;5.55;;;;;;;3.64;100.00;101615.50;5053213;28;20177;-74
2023/01/10 09:19:01;;;;;;;27.08;5.13;;;;;;;3.69;100.00;101617.44;5053175;28;20079;-77
2023/01/10 09:21:27;;;;;;;26.75;5.30;;;;;;;3.67;100.00;101612.16;5053639;28;20079;-74
2023/01/10 09:23:52;;;;;;;26.33;5.82;;;;;;;3.67;100.00;101614.75;5048914;28;20033;-73
2023/01/10 09:26:18;;;;;;;25.88;5.22;;;;;;;3.65;100.00;101622.50;5018284;28;20031;-74
2023/01/10 09:28:43;;;;;;;26.55;5.28;;;;;;;3.67;100.00;101627.84;5050636;28;20032;-75
2023/01/10 09:31:10;;;;;;;25.42;5.05;;;;;;;3.69;100.00;101620.94;5055608;28;20076;-81
2023/01/10 09:33:35;;;;;;;25.25;6.00;;;;;;;3.72;100.00;101613.22;5052216;28;20036;-85
2023/01/10 09:36:01;;;;;;;25.60;5.20;;;;;;;3.71;100.00;101619.28;5053823;28;20387;-83
2023/01/10 09:38:26;;;;;;;26.92;5.40;;;;;;;3.79;100.00;101615.28;5051388;28;20025;-77
2023/01/10 09:41:10;;;;;;;25.45;5.13;;;;;;;3.82;100.00;101619.78;5051967;28;20040;-78
2023/01/10 09:43:50;;;;;;;26.15;5.15;;;;;;;3.89;100.00;101616.59;5051923;28;20034;-79
2023/01/10 09:46:25;;;;;;;24.77;5.28;;;;;;;3.94;100.00;101614.19;5053236;28;20029;-74
2023/01/10 09:49:17;;;;;;;25.90;4.97;;;;;;;4.01;100.00;101616.25;5033974;28;20025;-83
2023/01/10 09:51:47;;;;;;;26.67;5.32;;;;;;;4.05;100.00;101623.41;5056938;28;20114;-74
2023/01/10 09:54:26;;;;;;;26.30;5.25;;;;;;;4.10;100.00;101611.41;5054900;28;20107;-75
2023/01/10 09:56:53;;;;;;;25.27;5.28;;;;;;;4.17;100.00;101610.81;5053900;28;20067;-74
2023/01/10 09:59:29;;;;;;;26.60;5.22;;;;;;;4.24;100.00;101608.47;5057812;28;20044;-74
2023/01/10 10:02:13;;;;;;;26.95;5.03;;;;;;;4.30;100.00;101614.88;5054673;28;20036;-73
2023/01/10 10:04:40;;;;;;;26.50;5.07;;;;;;;4.35;100.00;101617.66;5051768;28;20130;-80
2023/01/10 10:07:13;;;;;;;25.23;4.60;;;;;;;4.41;100.00;101620.53;5037578;28;20033;-73
2023/01/10 10:09:41;;;;;;;26.90;4.75;;;;;;;4.44;100.00;101620.69;5055211;28;20060;-76
2023/01/10 10:12:33;;;;;;;28.48;5.43;;;;;;;4.51;100.00;101621.81;5051569;28;20041;-77
2023/01/10 10:15:45;;;;;;;25.90;5.32;;;;;;;4.54;100.00;101604.53;5037477;28;20092;-74
2023/01/10 10:18:16;;;;;;;25.75;5.15;;;;;;;4.54;100.00;101601.91;5047753;28;20067;-82
2023/01/10 10:21:00;;;;;;;24.45;4.88;;;;;;;4.61;100.00;101594.31;5032755;28;20037;-83
2023/01/10 10:23:43;;;;;;;25.65;5.22;;;;;;;4.58;100.00;101596.81;5056635;28;20436;-80
2023/01/10 10:26:08;;;;;;;26.80;5.47;;;;;;;4.61;100.00;101587.31;5039968;28;20110;-80
2023/01/10 10:28:46;;;;;;;25.45;5.00;;;;;;;4.63;100.00;101597.88;5059183;28;20074;-80
2023/01/10 10:31:26;;;;;;;24.77;5.10;;;;;;;4.68;100.00;101591.97;5060595;28;20035;-77
2023/01/10 10:34:12;;;;;;;24.65;5.18;;;;;;;4.74;100.00;101591.34;5059483;28;20479;-82
2023/01/10 10:36:57;;;;;;;25.25;5.60;;;;;;;4.73;100.00;101581.69;5052984;28;20472;-79
2023/01/10 10:39:37;;;;;;;24.45;4.75;;;;;;;4.74;100.00;101586.09;5060385;28;20036;-81
2023/01/10 10:42:08;;;;;;;25.20;4.95;;;;;;;4.75;100.00;101574.81;5056303;28;20124;-81
2023/01/10 10:44:57;;;;;;;25.48;5.40;;;;;;;4.83;100.00;101562.88;5052058;28;20037;-85
2023/01/10 10:47:29;;;;;;;24.40;5.45;;;;;;;4.83;100.00;101557.63;5057394;28;20048;-77
2023/01/10 10:50:24;;;;;;;27.45;5.43;;;;;;;4.84;100.00;101554.19;5056609;28;20091;-79
2023/01/10 10:52:50;;;;;;;24.77;4.97;;;;;;;4.95;100.00;101543.22;5052026;28;20395;-73
2023/01/10 10:55:21;;;;;;;24.63;4.95;;;;;;;4.94;100.00;101550.22;5033720;28;20112;-75
2023/01/10 10:57:47;;;;;;;23.23;5.07;;;;;;;5.03;100.00;101542.69;5057893;28;20387;-73
2023/01/10 11:00:16;;;;;;;23.52;4.88;;;;;;;5.07;100.00;101539.34;5057813;28;20295;-91
2023/01/10 11:02:50;;;;;;;25.25;5.50;;;;;;;5.10;100.00;101533.34;5052417;28;20021;-78
2023/01/10 11:05:44;;;;;;;26.38;5.10;;;;;;;5.22;100.00;101533.78;5052015;28;20516;-82
2023/01/10 11:08:12;;;;;;;23.98;5.20;;;;;;;5.16;100.00;101528.31;5052086;28;20137;-79
2023/01/10 11:10:39;;;;;;;23.58;4.60;;;;;;;5.18;100.00;101516.16;5055837;28;20524;-84
2023/01/10 11:13:15;;;;;;;27.17;5.80;;;;;;;5.17;100.00;101522.25;5032933;28;20021;-76
2023/01/10 11:15:43;;;;;;;24.60;5.10;;;;;;;5.17;100.00;101519.63;5050894;28;20032;-77
2023/01/10 11:18:16;;;;;;;24.45;4.68;;;;;;;5.23;100.00;101509.38;5053710;28;20021;-77
2023/01/10 11:21:07;;;;;;;26.60;5.20;;;;;;;5.23;100.00;101513.72;5056599;28;20541;-72
2023/01/10 11:23:39;;;;;;;24.63;5.00;;;;;;;5.24;100.00;101508.53;5052755;28;20033;-73
2023/01/10 11:26:09;;;;;;;29.15;6.07;;;;;;;5.26;100.00;101502.44;5034478;28;20043;-74
2023/01/10 11:28:35;;;;;;;25.10;5.43;;;;;;;5.30;100.00;101515.75;5057901;28;20375;-71
2023/01/10 11:31:02;;;;;;;24.00;4.95;;;;;;;5.30;100.00;101514.81;5055345;28;20041;-73
2023/01/10 11:33:34;;;;;;;24.17;5.13;;;;;;;5.32;100.00;101508.81;5054544;28;20025;-74